sensor_id;sensor_type;location;lat;lon;timestamp;P1;durP1;ratioP1;P2;durP2;ratioP2
19623;SDS011;9959;49.798;9.928;2022-07-29T00:00:18;5.72;;;2.95;;
19623;SDS011;9959;49.798;9.928;2022-07-29T00:02:48;4.60;;;2.45;;
19623;SDS011;9959;49.798;9.928;2022-07-29T00:05:22;7.72;;;3.17;;
19623;SDS011;9959;49.798;9.928;2022-07-29T00:07:53;6.20;;;3.00;;
19623;SDS011;9959;49.798;9.928;2022-07-29T00:10:26;4.75;;;2.53;;
19623;SDS011;9959;49.798;9.928;2022-07-29T00:12:59;5.35;;;3.10;;
19623;SDS011;9959;49.798;9.928;2022-07-29T00:15:31;5.22;;;3.20;;
19623;SDS011;9959;49.798;9.928;2022-07-29T00:18:01;6.97;;;3.35;;
19623;SDS011;9959;49.798;9.928;2022-07-29T00:20:33;6.82;;;3.15;;
19623;SDS011;9959;49.798;9.928;2022-07-29T00:23:04;10.63;;;2.90;;
19623;SDS011;9959;49.798;9.928;2022-07-29T00:25:35;5.88;;;2.80;;
19623;SDS011;9959;49.798;9.928;2022-07-29T00:28:04;8.90;;;2.90;;
19623;SDS011;9959;49.798;9.928;2022-07-29T00:30:32;5.68;;;3.00;;
19623;SDS011;9959;49.798;9.928;2022-07-29T00:33:00;6.60;;;3.08;;
19623;SDS011;9959;49.798;9.928;2022-07-29T00:35:32;4.40;;;2.95;;
19623;SDS011;9959;49.798;9.928;2022-07-29T00:38:10;6.47;;;2.92;;
19623;SDS011;9959;49.798;9.928;2022-07-29T00:40:41;7.53;;;2.85;;
19623;SDS011;9959;49.798;9.928;2022-07-29T00:43:09;7.82;;;4.43;;
19623;SDS011;9959;49.798;9.928;2022-07-29T00:45:38;7.95;;;3.20;;
19623;SDS011;9959;49.798;9.928;2022-07-29T00:48:06;6.13;;;3.08;;
19623;SDS011;9959;49.798;9.928;2022-07-29T00:50:35;8.32;;;3.45;;
19623;SDS011;9959;49.798;9.928;2022-07-29T00:53:05;10.55;;;3.95;;
19623;SDS011;9959;49.798;9.928;2022-07-29T00:55:34;6.55;;;3.25;;
19623;SDS011;9959;49.798;9.928;2022-07-29T00:58:04;7.55;;;2.97;;
19623;SDS011;9959;49.798;9.928;2022-07-29T01:00:33;5.38;;;3.38;;
19623;SDS011;9959;49.798;9.928;2022-07-29T01:03:01;8.02;;;3.50;;
19623;SDS011;9959;49.798;9.928;2022-07-29T01:05:30;6.47;;;3.65;;
19623;SDS011;9959;49.798;9.928;2022-07-29T01:08:16;5.72;;;2.80;;
19623;SDS011;9959;49.798;9.928;2022-07-29T01:10:46;7.63;;;3.47;;
19623;SDS011;9959;49.798;9.928;2022-07-29T01:13:16;5.90;;;2.95;;
19623;SDS011;9959;49.798;9.928;2022-07-29T01:15:46;8.65;;;3.17;;
19623;SDS011;9959;49.798;9.928;2022-07-29T01:18:20;5.85;;;3.47;;
19623;SDS011;9959;49.798;9.928;2022-07-29T01:20:56;5.45;;;3.30;;
19623;SDS011;9959;49.798;9.928;2022-07-29T01:23:44;7.95;;;3.22;;
19623;SDS011;9959;49.798;9.928;2022-07-29T01:26:31;7.70;;;3.33;;
19623;SDS011;9959;49.798;9.928;2022-07-29T01:29:12;5.72;;;3.33;;
19623;SDS011;9959;49.798;9.928;2022-07-29T01:31:45;6.43;;;3.80;;
19623;SDS011;9959;49.798;9.928;2022-07-29T01:34:27;5.40;;;3.05;;
19623;SDS011;9959;49.798;9.928;2022-07-29T01:37:01;4.95;;;3.20;;
19623;SDS011;9959;49.798;9.928;2022-07-29T01:39:36;8.13;;;3.22;;
19623;SDS011;9959;49.798;9.928;2022-07-29T01:42:07;6.65;;;3.55;;
19623;SDS011;9959;49.798;9.928;2022-07-29T01:44:45;11.48;;;3.53;;
19623;SDS011;9959;49.798;9.928;2022-07-29T01:47:21;5.50;;;3.30;;
19623;SDS011;9959;49.798;9.928;2022-07-29T01:49:54;9.57;;;3.00;;
19623;SDS011;9959;49.798;9.928;2022-07-29T01:52:25;11.60;;;3.50;;
19623;SDS011;9959;49.798;9.928;2022-07-29T01:54:59;9.23;;;3.10;;
19623;SDS011;9959;49.798;9.928;2022-07-29T01:57:32;7.97;;;3.40;;
19623;SDS011;9959;49.798;9.928;2022-07-29T02:00:05;5.20;;;3.10;;
19623;SDS011;9959;49.798;9.928;2022-07-29T02:02:34;10.82;;;3.38;;
19623;SDS011;9959;49.798;9.928;2022-07-29T02:05:05;7.45;;;3.15;;
19623;SDS011;9959;49.798;9.928;2022-07-29T02:07:35;4.47;;;2.70;;
19623;SDS011;9959;49.798;9.928;2022-07-29T02:10:05;4.47;;;2.95;;
19623;SDS011;9959;49.798;9.928;2022-07-29T02:12:36;6.57;;;3.20;;
19623;SDS011;9959;49.798;9.928;2022-07-29T02:15:07;6.18;;;3.33;;
19623;SDS011;9959;49.798;9.928;2022-07-29T02:17:38;7.10;;;3.58;;
19623;SDS011;9959;49.798;9.928;2022-07-29T02:20:09;6.40;;;3.28;;
19623;SDS011;9959;49.798;9.928;2022-07-29T02:22:39;8.75;;;2.83;;
19623;SDS011;9959;49.798;9.928;2022-07-29T02:25:08;7.63;;;3.63;;
19623;SDS011;9959;49.798;9.928;2022-07-29T02:27:39;7.13;;;3.00;;
19623;SDS011;9959;49.798;9.928;2022-07-29T02:30:11;5.90;;;2.95;;
19623;SDS011;9959;49.798;9.928;2022-07-29T02:32:40;5.60;;;3.45;;
19623;SDS011;9959;49.798;9.928;2022-07-29T02:35:12;6.15;;;3.60;;
19623;SDS011;9959;49.798;9.928;2022-07-29T02:37:42;7.90;;;2.80;;
19623;SDS011;9959;49.798;9.928;2022-07-29T02:40:32;5.25;;;2.55;;
19623;SDS011;9959;49.798;9.928;2022-07-29T02:43:02;11.32;;;3.17;;
19623;SDS011;9959;49.798;9.928;2022-07-29T02:45:34;8.45;;;3.20;;
19623;SDS011;9959;49.798;9.928;2022-07-29T02:48:04;7.70;;;3.03;;
19623;SDS011;9959;49.798;9.928;2022-07-29T02:50:37;6.10;;;2.88;;
19623;SDS011;9959;49.798;9.928;2022-07-29T02:53:12;4.35;;;2.50;;
19623;SDS011;9959;49.798;9.928;2022-07-29T02:55:43;5.53;;;2.67;;
19623;SDS011;9959;49.798;9.928;2022-07-29T02:58:15;6.32;;;2.85;;
19623;SDS011;9959;49.798;9.928;2022-07-29T03:00:53;4.10;;;2.70;;
19623;SDS011;9959;49.798;9.928;2022-07-29T03:03:25;7.30;;;2.70;;
19623;SDS011;9959;49.798;9.928;2022-07-29T03:05:56;5.95;;;3.15;;
19623;SDS011;9959;49.798;9.928;2022-07-29T03:08:26;5.30;;;2.72;;
19623;SDS011;9959;49.798;9.928;2022-07-29T03:10:54;5.72;;;2.58;;
19623;SDS011;9959;49.798;9.928;2022-07-29T03:13:23;4.95;;;2.90;;
19623;SDS011;9959;49.798;9.928;2022-07-29T03:15:52;4.15;;;2.80;;
19623;SDS011;9959;49.798;9.928;2022-07-29T03:18:22;5.25;;;3.00;;
19623;SDS011;9959;49.798;9.928;2022-07-29T03:20:51;4.50;;;2.53;;
19623;SDS011;9959;49.798;9.928;2022-07-29T03:23:19;6.90;;;3.13;;
19623;SDS011;9959;49.798;9.928;2022-07-29T03:25:49;6.05;;;3.40;;
19623;SDS011;9959;49.798;9.928;2022-07-29T03:28:17;7.28;;;3.22;;
19623;SDS011;9959;49.798;9.928;2022-07-29T03:30:47;7.53;;;3.47;;
19623;SDS011;9959;49.798;9.928;2022-07-29T03:33:17;5.20;;;2.90;;
19623;SDS011;9959;49.798;9.928;2022-07-29T03:35:45;3.88;;;2.70;;
19623;SDS011;9959;49.798;9.928;2022-07-29T03:38:13;10.18;;;2.70;;
19623;SDS011;9959;49.798;9.928;2022-07-29T03:40:42;6.18;;;3.20;;
19623;SDS011;9959;49.798;9.928;2022-07-29T03:43:16;5.65;;;2.63;;
19623;SDS011;9959;49.798;9.928;2022-07-29T03:45:48;6.97;;;3.20;;
19623;SDS011;9959;49.798;9.928;2022-07-29T03:48:21;4.95;;;2.90;;
19623;SDS011;9959;49.798;9.928;2022-07-29T03:50:53;5.00;;;2.85;;
19623;SDS011;9959;49.798;9.928;2022-07-29T03:53:21;11.52;;;2.78;;
19623;SDS011;9959;49.798;9.928;2022-07-29T03:55:50;10.57;;;2.83;;
19623;SDS011;9959;49.798;9.928;2022-07-29T03:58:22;7.20;;;3.05;;
19623;SDS011;9959;49.798;9.928;2022-07-29T04:00:53;4.43;;;2.85;;
19623;SDS011;9959;49.798;9.928;2022-07-29T04:03:23;8.32;;;3.17;;
19623;SDS011;9959;49.798;9.928;2022-07-29T04:05:59;8.52;;;2.85;;
19623;SDS011;9959;49.798;9.928;2022-07-29T04:08:28;5.53;;;3.08;;
19623;SDS011;9959;49.798;9.928;2022-07-29T04:10:56;6.35;;;3.15;;
19623;SDS011;9959;49.798;9.928;2022-07-29T04:13:24;5.63;;;2.60;;
19623;SDS011;9959;49.798;9.928;2022-07-29T04:15:52;9.45;;;2.97;;
19623;SDS011;9959;49.798;9.928;2022-07-29T04:18:20;5.97;;;2.90;;
19623;SDS011;9959;49.798;9.928;2022-07-29T04:20:49;6.10;;;2.80;;
19623;SDS011;9959;49.798;9.928;2022-07-29T04:23:17;7.03;;;3.40;;
19623;SDS011;9959;49.798;9.928;2022-07-29T04:25:45;5.38;;;2.45;;
19623;SDS011;9959;49.798;9.928;2022-07-29T04:28:13;5.75;;;2.45;;
19623;SDS011;9959;49.798;9.928;2022-07-29T04:30:42;4.85;;;3.20;;
19623;SDS011;9959;49.798;9.928;2022-07-29T04:33:10;8.95;;;3.70;;
19623;SDS011;9959;49.798;9.928;2022-07-29T04:35:38;8.77;;;3.72;;
19623;SDS011;9959;49.798;9.928;2022-07-29T04:38:18;6.97;;;3.80;;
19623;SDS011;9959;49.798;9.928;2022-07-29T04:40:46;8.48;;;3.47;;
19623;SDS011;9959;49.798;9.928;2022-07-29T04:43:15;5.70;;;3.70;;
19623;SDS011;9959;49.798;9.928;2022-07-29T04:45:48;7.05;;;3.50;;
19623;SDS011;9959;49.798;9.928;2022-07-29T04:48:16;8.30;;;3.75;;
19623;SDS011;9959;49.798;9.928;2022-07-29T04:50:44;9.30;;;3.75;;
19623;SDS011;9959;49.798;9.928;2022-07-29T04:53:12;6.80;;;3.78;;
19623;SDS011;9959;49.798;9.928;2022-07-29T04:55:41;9.98;;;4.22;;
19623;SDS011;9959;49.798;9.928;2022-07-29T04:58:09;9.13;;;3.45;;
19623;SDS011;9959;49.798;9.928;2022-07-29T05:00:37;10.85;;;4.00;;
19623;SDS011;9959;49.798;9.928;2022-07-29T05:03:05;9.80;;;3.90;;
19623;SDS011;9959;49.798;9.928;2022-07-29T05:05:33;9.68;;;3.90;;
19623;SDS011;9959;49.798;9.928;2022-07-29T05:08:01;9.10;;;4.00;;
19623;SDS011;9959;49.798;9.928;2022-07-29T05:10:28;9.55;;;3.30;;
19623;SDS011;9959;49.798;9.928;2022-07-29T05:12:58;8.45;;;3.92;;
19623;SDS011;9959;49.798;9.928;2022-07-29T05:15:26;8.40;;;3.85;;
19623;SDS011;9959;49.798;9.928;2022-07-29T05:17:53;10.90;;;3.58;;
19623;SDS011;9959;49.798;9.928;2022-07-29T05:20:21;6.88;;;3.08;;
19623;SDS011;9959;49.798;9.928;2022-07-29T05:22:54;8.82;;;3.40;;
19623;SDS011;9959;49.798;9.928;2022-07-29T05:25:22;6.97;;;3.50;;
19623;SDS011;9959;49.798;9.928;2022-07-29T05:27:50;7.38;;;3.38;;
19623;SDS011;9959;49.798;9.928;2022-07-29T05:30:21;8.55;;;4.00;;
19623;SDS011;9959;49.798;9.928;2022-07-29T05:32:50;5.82;;;3.60;;
19623;SDS011;9959;49.798;9.928;2022-07-29T05:35:18;7.38;;;3.97;;
19623;SDS011;9959;49.798;9.928;2022-07-29T05:37:45;4.65;;;2.70;;
19623;SDS011;9959;49.798;9.928;2022-07-29T05:40:13;10.13;;;3.35;;
19623;SDS011;9959;49.798;9.928;2022-07-29T05:42:41;7.03;;;2.88;;
19623;SDS011;9959;49.798;9.928;2022-07-29T05:45:10;7.65;;;3.35;;
19623;SDS011;9959;49.798;9.928;2022-07-29T05:47:39;8.82;;;3.22;;
19623;SDS011;9959;49.798;9.928;2022-07-29T05:50:07;5.70;;;2.78;;
19623;SDS011;9959;49.798;9.928;2022-07-29T05:52:36;6.40;;;2.63;;
19623;SDS011;9959;49.798;9.928;2022-07-29T05:55:04;7.55;;;2.35;;
19623;SDS011;9959;49.798;9.928;2022-07-29T05:57:32;4.15;;;2.25;;
19623;SDS011;9959;49.798;9.928;2022-07-29T06:00:00;5.40;;;2.75;;
19623;SDS011;9959;49.798;9.928;2022-07-29T06:02:28;3.85;;;2.80;;
19623;SDS011;9959;49.798;9.928;2022-07-29T06:04:58;3.58;;;2.88;;
19623;SDS011;9959;49.798;9.928;2022-07-29T06:07:26;6.72;;;2.60;;
19623;SDS011;9959;49.798;9.928;2022-07-29T06:09:54;5.13;;;2.80;;
19623;SDS011;9959;49.798;9.928;2022-07-29T06:12:22;7.07;;;2.72;;
19623;SDS011;9959;49.798;9.928;2022-07-29T06:14:50;3.70;;;2.60;;
19623;SDS011;9959;49.798;9.928;2022-07-29T06:17:19;7.90;;;2.72;;
19623;SDS011;9959;49.798;9.928;2022-07-29T06:19:47;7.30;;;2.50;;
19623;SDS011;9959;49.798;9.928;2022-07-29T06:22:16;4.55;;;2.47;;
19623;SDS011;9959;49.798;9.928;2022-07-29T06:24:44;10.15;;;3.63;;
19623;SDS011;9959;49.798;9.928;2022-07-29T06:27:12;4.57;;;2.50;;
19623;SDS011;9959;49.798;9.928;2022-07-29T06:29:40;3.20;;;2.22;;
19623;SDS011;9959;49.798;9.928;2022-07-29T06:32:08;5.35;;;2.90;;
19623;SDS011;9959;49.798;9.928;2022-07-29T06:34:36;3.63;;;2.22;;
19623;SDS011;9959;49.798;9.928;2022-07-29T06:37:07;5.50;;;2.90;;
19623;SDS011;9959;49.798;9.928;2022-07-29T06:39:42;3.50;;;2.45;;
19623;SDS011;9959;49.798;9.928;2022-07-29T06:42:10;7.07;;;2.50;;
19623;SDS011;9959;49.798;9.928;2022-07-29T06:44:38;5.03;;;2.42;;
19623;SDS011;9959;49.798;9.928;2022-07-29T06:47:06;10.80;;;3.08;;
19623;SDS011;9959;49.798;9.928;2022-07-29T06:49:34;6.25;;;2.78;;
19623;SDS011;9959;49.798;9.928;2022-07-29T06:52:02;5.35;;;2.72;;
19623;SDS011;9959;49.798;9.928;2022-07-29T06:54:31;4.53;;;2.25;;
19623;SDS011;9959;49.798;9.928;2022-07-29T06:57:00;6.30;;;2.30;;
19623;SDS011;9959;49.798;9.928;2022-07-29T06:59:28;15.60;;;5.10;;
19623;SDS011;9959;49.798;9.928;2022-07-29T07:02:01;9.02;;;3.35;;
19623;SDS011;9959;49.798;9.928;2022-07-29T07:04:29;6.80;;;3.10;;
19623;SDS011;9959;49.798;9.928;2022-07-29T07:06:57;8.77;;;2.88;;
19623;SDS011;9959;49.798;9.928;2022-07-29T07:09:25;6.45;;;2.70;;
19623;SDS011;9959;49.798;9.928;2022-07-29T07:12:07;5.80;;;2.72;;
19623;SDS011;9959;49.798;9.928;2022-07-29T07:14:35;6.80;;;2.47;;
19623;SDS011;9959;49.798;9.928;2022-07-29T07:17:03;4.20;;;2.40;;
19623;SDS011;9959;49.798;9.928;2022-07-29T07:19:33;5.93;;;2.63;;
19623;SDS011;9959;49.798;9.928;2022-07-29T07:22:01;4.50;;;2.47;;
19623;SDS011;9959;49.798;9.928;2022-07-29T07:24:30;5.55;;;3.05;;
19623;SDS011;9959;49.798;9.928;2022-07-29T07:26:57;7.72;;;2.55;;
19623;SDS011;9959;49.798;9.928;2022-07-29T07:29:27;3.97;;;2.63;;
19623;SDS011;9959;49.798;9.928;2022-07-29T07:31:55;8.57;;;2.70;;
19623;SDS011;9959;49.798;9.928;2022-07-29T07:34:26;6.70;;;2.88;;
19623;SDS011;9959;49.798;9.928;2022-07-29T07:36:55;5.32;;;2.83;;
19623;SDS011;9959;49.798;9.928;2022-07-29T07:39:22;9.88;;;3.15;;
19623;SDS011;9959;49.798;9.928;2022-07-29T07:41:52;4.45;;;2.90;;
19623;SDS011;9959;49.798;9.928;2022-07-29T07:44:20;8.07;;;3.58;;
19623;SDS011;9959;49.798;9.928;2022-07-29T07:46:50;7.68;;;3.00;;
19623;SDS011;9959;49.798;9.928;2022-07-29T07:49:19;5.35;;;2.80;;
19623;SDS011;9959;49.798;9.928;2022-07-29T07:51:48;3.47;;;2.55;;
19623;SDS011;9959;49.798;9.928;2022-07-29T07:54:16;3.10;;;2.65;;
19623;SDS011;9959;49.798;9.928;2022-07-29T07:56:46;5.25;;;3.25;;
19623;SDS011;9959;49.798;9.928;2022-07-29T07:59:18;4.47;;;3.03;;
19623;SDS011;9959;49.798;9.928;2022-07-29T08:01:46;7.50;;;3.20;;
19623;SDS011;9959;49.798;9.928;2022-07-29T08:04:22;5.80;;;3.35;;
19623;SDS011;9959;49.798;9.928;2022-07-29T08:06:54;4.07;;;3.03;;
19623;SDS011;9959;49.798;9.928;2022-07-29T08:09:22;4.15;;;3.05;;
19623;SDS011;9959;49.798;9.928;2022-07-29T08:11:55;3.50;;;2.70;;
19623;SDS011;9959;49.798;9.928;2022-07-29T08:14:24;13.10;;;3.08;;
19623;SDS011;9959;49.798;9.928;2022-07-29T08:16:52;5.40;;;2.80;;
19623;SDS011;9959;49.798;9.928;2022-07-29T08:19:20;4.18;;;3.13;;
19623;SDS011;9959;49.798;9.928;2022-07-29T08:21:50;4.72;;;2.88;;
19623;SDS011;9959;49.798;9.928;2022-07-29T08:24:20;4.40;;;2.97;;
19623;SDS011;9959;49.798;9.928;2022-07-29T08:27:06;5.15;;;2.92;;
19623;SDS011;9959;49.798;9.928;2022-07-29T08:29:54;4.72;;;3.33;;
19623;SDS011;9959;49.798;9.928;2022-07-29T08:32:23;4.88;;;3.17;;
19623;SDS011;9959;49.798;9.928;2022-07-29T08:35:10;3.65;;;3.20;;
19623;SDS011;9959;49.798;9.928;2022-07-29T08:37:40;4.28;;;3.15;;
19623;SDS011;9959;49.798;9.928;2022-07-29T08:40:08;3.55;;;3.10;;
19623;SDS011;9959;49.798;9.928;2022-07-29T08:42:37;3.88;;;3.20;;
19623;SDS011;9959;49.798;9.928;2022-07-29T08:45:05;5.13;;;3.35;;
19623;SDS011;9959;49.798;9.928;2022-07-29T08:47:34;5.00;;;3.00;;
19623;SDS011;9959;49.798;9.928;2022-07-29T08:50:06;3.63;;;3.08;;
19623;SDS011;9959;49.798;9.928;2022-07-29T08:52:35;5.18;;;3.00;;
19623;SDS011;9959;49.798;9.928;2022-07-29T08:55:07;4.63;;;3.30;;
19623;SDS011;9959;49.798;9.928;2022-07-29T08:57:37;4.68;;;3.00;;
19623;SDS011;9959;49.798;9.928;2022-07-29T09:00:17;3.88;;;3.05;;
19623;SDS011;9959;49.798;9.928;2022-07-29T09:02:46;3.83;;;3.22;;
19623;SDS011;9959;49.798;9.928;2022-07-29T09:05:18;5.57;;;3.67;;
19623;SDS011;9959;49.798;9.928;2022-07-29T09:07:47;4.05;;;3.03;;
19623;SDS011;9959;49.798;9.928;2022-07-29T09:10:16;3.63;;;3.20;;
19623;SDS011;9959;49.798;9.928;2022-07-29T09:12:44;4.38;;;3.50;;
19623;SDS011;9959;49.798;9.928;2022-07-29T09:15:13;5.47;;;3.35;;
19623;SDS011;9959;49.798;9.928;2022-07-29T09:17:41;3.75;;;3.08;;
19623;SDS011;9959;49.798;9.928;2022-07-29T09:20:11;5.25;;;3.05;;
19623;SDS011;9959;49.798;9.928;2022-07-29T09:22:41;5.40;;;2.92;;
19623;SDS011;9959;49.798;9.928;2022-07-29T09:25:12;4.25;;;2.80;;
19623;SDS011;9959;49.798;9.928;2022-07-29T09:27:42;3.65;;;2.88;;
19623;SDS011;9959;49.798;9.928;2022-07-29T09:30:17;5.72;;;3.40;;
19623;SDS011;9959;49.798;9.928;2022-07-29T09:32:57;3.97;;;3.13;;
19623;SDS011;9959;49.798;9.928;2022-07-29T09:35:27;4.97;;;2.97;;
19623;SDS011;9959;49.798;9.928;2022-07-29T09:37:56;6.50;;;2.95;;
19623;SDS011;9959;49.798;9.928;2022-07-29T09:40:24;9.57;;;3.60;;
19623;SDS011;9959;49.798;9.928;2022-07-29T09:42:56;9.73;;;3.13;;
19623;SDS011;9959;49.798;9.928;2022-07-29T09:45:28;9.05;;;3.70;;
19623;SDS011;9959;49.798;9.928;2022-07-29T09:47:57;5.82;;;3.63;;
19623;SDS011;9959;49.798;9.928;2022-07-29T09:50:35;7.30;;;3.25;;
19623;SDS011;9959;49.798;9.928;2022-07-29T09:53:04;6.30;;;3.38;;
19623;SDS011;9959;49.798;9.928;2022-07-29T09:55:40;7.05;;;3.60;;
19623;SDS011;9959;49.798;9.928;2022-07-29T09:58:18;8.07;;;3.15;;
19623;SDS011;9959;49.798;9.928;2022-07-29T10:00:49;4.50;;;3.33;;
19623;SDS011;9959;49.798;9.928;2022-07-29T10:03:18;7.88;;;3.30;;
19623;SDS011;9959;49.798;9.928;2022-07-29T10:06:02;4.05;;;3.00;;
19623;SDS011;9959;49.798;9.928;2022-07-29T10:08:32;5.75;;;3.15;;
19623;SDS011;9959;49.798;9.928;2022-07-29T10:11:08;5.60;;;3.30;;
19623;SDS011;9959;49.798;9.928;2022-07-29T10:13:39;4.20;;;2.58;;
19623;SDS011;9959;49.798;9.928;2022-07-29T10:16:08;6.97;;;3.38;;
19623;SDS011;9959;49.798;9.928;2022-07-29T10:18:39;3.42;;;2.75;;
19623;SDS011;9959;49.798;9.928;2022-07-29T10:21:08;5.60;;;3.55;;
19623;SDS011;9959;49.798;9.928;2022-07-29T10:23:57;8.25;;;3.63;;
19623;SDS011;9959;49.798;9.928;2022-07-29T10:26:26;7.63;;;4.15;;
19623;SDS011;9959;49.798;9.928;2022-07-29T10:28:56;6.30;;;3.58;;
19623;SDS011;9959;49.798;9.928;2022-07-29T10:31:26;5.85;;;3.28;;
19623;SDS011;9959;49.798;9.928;2022-07-29T10:34:03;6.43;;;4.18;;
19623;SDS011;9959;49.798;9.928;2022-07-29T10:36:42;6.38;;;3.97;;
19623;SDS011;9959;49.798;9.928;2022-07-29T10:39:29;5.53;;;3.40;;
19623;SDS011;9959;49.798;9.928;2022-07-29T10:42:17;5.38;;;3.20;;
19623;SDS011;9959;49.798;9.928;2022-07-29T10:45:01;4.60;;;3.45;;
19623;SDS011;9959;49.798;9.928;2022-07-29T10:47:31;5.15;;;3.03;;
19623;SDS011;9959;49.798;9.928;2022-07-29T10:50:01;8.80;;;3.17;;
19623;SDS011;9959;49.798;9.928;2022-07-29T10:55:34;4.63;;;3.30;;
19623;SDS011;9959;49.798;9.928;2022-07-29T10:58:12;7.25;;;3.40;;
19623;SDS011;9959;49.798;9.928;2022-07-29T11:00:45;5.00;;;3.20;;
19623;SDS011;9959;49.798;9.928;2022-07-29T11:06:16;3.20;;;2.90;;
19623;SDS011;9959;49.798;9.928;2022-07-29T11:12:07;5.38;;;3.22;;
19623;SDS011;9959;49.798;9.928;2022-07-29T11:15:15;3.30;;;2.92;;
19623;SDS011;9959;49.798;9.928;2022-07-29T11:18:05;5.60;;;3.33;;
19623;SDS011;9959;49.798;9.928;2022-07-29T11:20:41;3.80;;;3.03;;
19623;SDS011;9959;49.798;9.928;2022-07-29T11:23:18;3.42;;;3.13;;
19623;SDS011;9959;49.798;9.928;2022-07-29T11:26:18;5.28;;;3.65;;
19623;SDS011;9959;49.798;9.928;2022-07-29T11:28:51;5.97;;;3.17;;
19623;SDS011;9959;49.798;9.928;2022-07-29T11:31:33;5.32;;;3.60;;
19623;SDS011;9959;49.798;9.928;2022-07-29T11:34:20;4.22;;;3.40;;
19623;SDS011;9959;49.798;9.928;2022-07-29T11:37:13;5.88;;;3.53;;
19623;SDS011;9959;49.798;9.928;2022-07-29T11:42:46;7.38;;;3.13;;
19623;SDS011;9959;49.798;9.928;2022-07-29T11:45:24;8.57;;;3.60;;
19623;SDS011;9959;49.798;9.928;2022-07-29T11:48:18;4.60;;;3.45;;
19623;SDS011;9959;49.798;9.928;2022-07-29T11:50:56;4.18;;;3.63;;
19623;SDS011;9959;49.798;9.928;2022-07-29T11:53:25;4.55;;;2.95;;
19623;SDS011;9959;49.798;9.928;2022-07-29T11:55:55;6.63;;;3.00;;
19623;SDS011;9959;49.798;9.928;2022-07-29T11:58:24;5.88;;;3.03;;
19623;SDS011;9959;49.798;9.928;2022-07-29T12:00:56;4.20;;;3.72;;
19623;SDS011;9959;49.798;9.928;2022-07-29T12:03:31;9.02;;;3.70;;
19623;SDS011;9959;49.798;9.928;2022-07-29T12:06:04;3.63;;;3.17;;
19623;SDS011;9959;49.798;9.928;2022-07-29T12:08:40;6.13;;;3.47;;
19623;SDS011;9959;49.798;9.928;2022-07-29T12:11:17;3.65;;;3.20;;
19623;SDS011;9959;49.798;9.928;2022-07-29T12:13:47;3.50;;;3.20;;
19623;SDS011;9959;49.798;9.928;2022-07-29T12:16:16;3.55;;;3.15;;
19623;SDS011;9959;49.798;9.928;2022-07-29T12:18:55;4.63;;;3.80;;
19623;SDS011;9959;49.798;9.928;2022-07-29T12:21:26;4.13;;;3.45;;
19623;SDS011;9959;49.798;9.928;2022-07-29T12:23:56;2.95;;;2.75;;
19623;SDS011;9959;49.798;9.928;2022-07-29T12:26:34;4.55;;;3.20;;
19623;SDS011;9959;49.798;9.928;2022-07-29T12:29:02;5.18;;;3.30;;
19623;SDS011;9959;49.798;9.928;2022-07-29T12:31:33;8.95;;;3.50;;
19623;SDS011;9959;49.798;9.928;2022-07-29T12:34:07;5.38;;;3.40;;
19623;SDS011;9959;49.798;9.928;2022-07-29T12:36:37;10.35;;;3.30;;
19623;SDS011;9959;49.798;9.928;2022-07-29T12:39:05;4.18;;;3.40;;
19623;SDS011;9959;49.798;9.928;2022-07-29T12:41:35;7.13;;;3.60;;
19623;SDS011;9959;49.798;9.928;2022-07-29T12:44:05;3.58;;;3.08;;
19623;SDS011;9959;49.798;9.928;2022-07-29T12:46:32;4.35;;;3.30;;
19623;SDS011;9959;49.798;9.928;2022-07-29T12:49:01;8.57;;;3.70;;
19623;SDS011;9959;49.798;9.928;2022-07-29T12:51:29;9.55;;;3.70;;
19623;SDS011;9959;49.798;9.928;2022-07-29T12:54:03;3.40;;;2.92;;
19623;SDS011;9959;49.798;9.928;2022-07-29T12:56:33;4.28;;;3.13;;
19623;SDS011;9959;49.798;9.928;2022-07-29T12:59:11;3.35;;;3.00;;
19623;SDS011;9959;49.798;9.928;2022-07-29T13:01:41;5.80;;;3.28;;
19623;SDS011;9959;49.798;9.928;2022-07-29T13:04:09;7.03;;;4.22;;
19623;SDS011;9959;49.798;9.928;2022-07-29T13:06:39;5.35;;;3.20;;
19623;SDS011;9959;49.798;9.928;2022-07-29T13:09:17;6.45;;;3.75;;
19623;SDS011;9959;49.798;9.928;2022-07-29T13:11:46;5.93;;;3.35;;
19623;SDS011;9959;49.798;9.928;2022-07-29T13:14:29;4.57;;;3.25;;
19623;SDS011;9959;49.798;9.928;2022-07-29T13:17:03;4.03;;;2.92;;
19623;SDS011;9959;49.798;9.928;2022-07-29T13:19:34;7.68;;;3.25;;
19623;SDS011;9959;49.798;9.928;2022-07-29T13:22:04;6.25;;;3.33;;
19623;SDS011;9959;49.798;9.928;2022-07-29T13:24:33;4.38;;;3.15;;
19623;SDS011;9959;49.798;9.928;2022-07-29T13:27:13;5.22;;;3.17;;
19623;SDS011;9959;49.798;9.928;2022-07-29T13:29:41;4.90;;;3.08;;
19623;SDS011;9959;49.798;9.928;2022-07-29T13:32:10;5.45;;;3.55;;
19623;SDS011;9959;49.798;9.928;2022-07-29T13:34:39;5.07;;;3.05;;
19623;SDS011;9959;49.798;9.928;2022-07-29T13:37:08;6.40;;;3.47;;
19623;SDS011;9959;49.798;9.928;2022-07-29T13:39:37;4.82;;;3.35;;
19623;SDS011;9959;49.798;9.928;2022-07-29T13:42:06;5.60;;;3.50;;
19623;SDS011;9959;49.798;9.928;2022-07-29T13:44:36;5.80;;;3.40;;
19623;SDS011;9959;49.798;9.928;2022-07-29T13:47:04;4.57;;;3.15;;
19623;SDS011;9959;49.798;9.928;2022-07-29T13:49:32;6.68;;;3.50;;
19623;SDS011;9959;49.798;9.928;2022-07-29T13:52:00;11.93;;;4.00;;
19623;SDS011;9959;49.798;9.928;2022-07-29T13:54:28;5.35;;;3.50;;
19623;SDS011;9959;49.798;9.928;2022-07-29T13:56:57;10.35;;;4.60;;
19623;SDS011;9959;49.798;9.928;2022-07-29T13:59:25;7.00;;;4.20;;
19623;SDS011;9959;49.798;9.928;2022-07-29T14:01:53;7.13;;;4.35;;
19623;SDS011;9959;49.798;9.928;2022-07-29T14:04:21;6.20;;;4.65;;
19623;SDS011;9959;49.798;9.928;2022-07-29T14:06:50;7.47;;;4.72;;
19623;SDS011;9959;49.798;9.928;2022-07-29T14:09:18;8.20;;;4.60;;
19623;SDS011;9959;49.798;9.928;2022-07-29T14:11:46;9.95;;;4.97;;
19623;SDS011;9959;49.798;9.928;2022-07-29T14:14:17;6.38;;;4.85;;
19623;SDS011;9959;49.798;9.928;2022-07-29T14:16:46;7.32;;;4.63;;
19623;SDS011;9959;49.798;9.928;2022-07-29T14:19:17;7.15;;;4.47;;
19623;SDS011;9959;49.798;9.928;2022-07-29T14:21:45;9.25;;;5.45;;
19623;SDS011;9959;49.798;9.928;2022-07-29T14:24:15;8.13;;;5.32;;
19623;SDS011;9959;49.798;9.928;2022-07-29T14:26:49;5.70;;;5.10;;
19623;SDS011;9959;49.798;9.928;2022-07-29T14:29:18;8.77;;;4.90;;
19623;SDS011;9959;49.798;9.928;2022-07-29T14:31:46;10.38;;;4.85;;
19623;SDS011;9959;49.798;9.928;2022-07-29T14:34:14;7.00;;;5.18;;
19623;SDS011;9959;49.798;9.928;2022-07-29T14:36:42;12.60;;;5.18;;
19623;SDS011;9959;49.798;9.928;2022-07-29T14:39:10;7.10;;;4.85;;
19623;SDS011;9959;49.798;9.928;2022-07-29T14:41:38;8.18;;;5.25;;
19623;SDS011;9959;49.798;9.928;2022-07-29T14:44:06;8.55;;;5.00;;
19623;SDS011;9959;49.798;9.928;2022-07-29T14:46:35;8.55;;;4.97;;
19623;SDS011;9959;49.798;9.928;2022-07-29T14:49:03;7.32;;;4.70;;
19623;SDS011;9959;49.798;9.928;2022-07-29T14:51:34;9.25;;;5.68;;
19623;SDS011;9959;49.798;9.928;2022-07-29T14:54:03;9.88;;;5.13;;
19623;SDS011;9959;49.798;9.928;2022-07-29T14:56:31;7.55;;;5.65;;
19623;SDS011;9959;49.798;9.928;2022-07-29T14:59:02;14.18;;;5.55;;
19623;SDS011;9959;49.798;9.928;2022-07-29T15:01:30;9.95;;;5.55;;
19623;SDS011;9959;49.798;9.928;2022-07-29T15:04:00;6.60;;;4.53;;
19623;SDS011;9959;49.798;9.928;2022-07-29T15:06:28;6.25;;;5.32;;
19623;SDS011;9959;49.798;9.928;2022-07-29T15:08:55;7.35;;;5.38;;
19623;SDS011;9959;49.798;9.928;2022-07-29T15:11:23;7.93;;;5.10;;
19623;SDS011;9959;49.798;9.928;2022-07-29T15:13:51;10.13;;;4.97;;
19623;SDS011;9959;49.798;9.928;2022-07-29T15:16:20;5.53;;;3.97;;
19623;SDS011;9959;49.798;9.928;2022-07-29T15:18:48;4.97;;;3.22;;
19623;SDS011;9959;49.798;9.928;2022-07-29T15:21:17;9.18;;;4.15;;
19623;SDS011;9959;49.798;9.928;2022-07-29T15:23:45;9.18;;;4.53;;
19623;SDS011;9959;49.798;9.928;2022-07-29T15:26:13;6.13;;;4.10;;
19623;SDS011;9959;49.798;9.928;2022-07-29T15:28:41;8.32;;;4.60;;
19623;SDS011;9959;49.798;9.928;2022-07-29T15:31:09;16.13;;;5.45;;
19623;SDS011;9959;49.798;9.928;2022-07-29T15:33:37;6.45;;;4.20;;
19623;SDS011;9959;49.798;9.928;2022-07-29T15:36:05;12.82;;;4.93;;